Time;durP1;ratioP1;P1;durP2;ratioP2;P2;SDS_P1;SDS_P2;PMS_P1;PMS_P2;Temp;Humidity;BMP_temperature;BMP_pressure;BME280_temperature;BME280_humidity;BME280_pressure;Samples;Min_cycle;Max_cycle;Signal;HPM_P1;HPM_P2
2023/06/25 00:02:14;;;;;;;9.23;7.07;;;21.70;99.90;;;;;;4996063;28;20663;-81
2023/06/25 00:04:39;;;;;;;12.15;6.90;;;21.60;99.90;;;;;;4991470;28;20022;-81
2023/06/25 00:07:05;;;;;;;13.45;6.55;;;21.60;99.90;;;;;;4972593;28;20034;-81
2023/06/25 00:09:31;;;;;;;7.40;6.57;;;21.60;99.90;;;;;;4986474;28;20417;-81
2023/06/25 00:11:58;;;;;;;10.05;6.47;;;21.60;99.90;;;;;;4977989;28;20030;-81
2023/06/25 00:14:24;;;;;;;15.75;7.40;;;21.50;99.90;;;;;;4984494;28;20026;-81
2023/06/25 00:16:57;;;;;;;11.32;7.25;;;21.50;99.90;;;;;;4992143;28;20105;-81
2023/06/25 00:19:26;;;;;;;8.02;6.10;;;21.40;99.90;;;;;;4994822;28;20125;-81
2023/06/25 00:21:52;;;;;;;10.07;6.43;;;21.40;99.90;;;;;;4970781;28;20057;-81
2023/06/25 00:24:18;;;;;;;12.10;7.03;;;21.30;99.90;;;;;;4991203;28;20030;-81
2023/06/25 00:26:45;;;;;;;9.60;7.13;;;21.20;99.90;;;;;;4981194;28;20095;-82
2023/06/25 00:29:13;;;;;;;9.50;7.40;;;21.10;99.90;;;;;;4995616;28;20372;-82
2023/06/25 00:31:39;;;;;;;13.57;8.02;;;21.10;99.90;;;;;;4993063;28;20022;-82
2023/06/25 00:34:04;;;;;;;12.02;7.97;;;21.00;99.90;;;;;;4990845;28;20022;-82
2023/06/25 00:36:36;;;;;;;15.40;8.45;;;20.90;99.90;;;;;;4992122;28;20377;-81
2023/06/25 00:39:03;;;;;;;11.45;8.02;;;21.00;99.90;;;;;;4980281;28;20029;-82
2023/06/25 00:41:29;;;;;;;15.10;8.63;;;20.90;99.90;;;;;;4997719;28;20029;-81
2023/06/25 00:43:55;;;;;;;14.85;8.27;;;20.90;99.90;;;;;;4994218;28;20030;-81
2023/06/25 00:46:23;;;;;;;11.82;8.23;;;20.80;99.90;;;;;;5004919;28;20062;-81
2023/06/25 00:48:49;;;;;;;12.00;8.35;;;20.90;99.90;;;;;;5001326;28;20084;-81
2023/06/25 00:51:16;;;;;;;12.98;8.32;;;20.80;99.90;;;;;;4998595;28;20049;-82
2023/06/25 00:53:43;;;;;;;15.52;9.45;;;20.80;99.90;;;;;;4998125;28;20049;-80
2023/06/25 00:56:09;;;;;;;11.70;8.48;;;20.80;99.90;;;;;;4994549;28;20022;-81
2023/06/25 00:58:37;;;;;;;10.23;7.90;;;20.80;99.90;;;;;;5000547;28;20021;-81
2023/06/25 01:01:04;;;;;;;10.18;7.78;;;20.70;99.90;;;;;;4999623;28;20089;-81
2023/06/25 01:03:36;;;;;;;15.95;8.57;;;20.70;99.90;;;;;;4996341;28;20018;-80
2023/06/25 01:06:08;;;;;;;13.18;8.02;;;20.70;99.90;;;;;;4993816;28;20087;-79
2023/06/25 01:08:36;;;;;;;13.07;8.20;;;20.70;99.90;;;;;;4998184;28;20053;-79
2023/06/25 01:11:02;;;;;;;16.40;8.55;;;20.60;99.90;;;;;;4973906;28;20097;-80
2023/06/25 01:13:27;;;;;;;10.65;8.50;;;20.60;99.90;;;;;;4992454;28;20030;-79
2023/06/25 01:15:53;;;;;;;13.40;8.35;;;20.60;99.90;;;;;;4982085;28;20037;-79
2023/06/25 01:18:22;;;;;;;17.73;8.98;;;20.60;99.90;;;;;;4977880;28;20041;-79
2023/06/25 01:20:52;;;;;;;12.05;8.10;;;20.50;99.90;;;;;;4980121;28;20045;-79
2023/06/25 01:23:21;;;;;;;10.73;8.35;;;20.50;99.90;;;;;;4971624;28;20025;-79
2023/06/25 01:25:48;;;;;;;14.90;9.45;;;20.50;99.90;;;;;;4996717;28;20100;-80
2023/06/25 01:28:20;;;;;;;11.35;8.43;;;20.40;99.90;;;;;;4976445;28;20860;-79
2023/06/25 01:30:48;;;;;;;16.70;9.02;;;20.40;99.90;;;;;;4981173;28;20251;-78
2023/06/25 01:33:19;;;;;;;12.43;8.70;;;20.40;99.90;;;;;;4995717;28;20499;-81
2023/06/25 01:35:44;;;;;;;12.85;8.45;;;20.30;99.90;;;;;;5003874;28;20025;-81
2023/06/25 01:38:12;;;;;;;10.90;8.90;;;20.30;99.90;;;;;;5022665;28;20056;-81
2023/06/25 01:40:38;;;;;;;13.02;9.07;;;20.30;99.90;;;;;;5016397;28;20087;-81
2023/06/25 01:43:04;;;;;;;10.93;8.15;;;20.30;99.90;;;;;;5004709;28;20022;-81
2023/06/25 01:45:31;;;;;;;18.25;8.32;;;20.20;99.90;;;;;;4977599;28;20057;-81
2023/06/25 01:47:58;;;;;;;11.75;9.73;;;20.30;99.90;;;;;;4995615;28;20042;-81
2023/06/25 01:50:24;;;;;;;11.48;8.57;;;20.20;99.90;;;;;;4981145;28;20080;-79
2023/06/25 01:52:49;;;;;;;15.57;8.98;;;20.20;99.90;;;;;;4991846;28;20010;-80
2023/06/25 01:55:15;;;;;;;10.40;8.45;;;20.20;99.90;;;;;;5009272;28;20105;-79
2023/06/25 01:57:41;;;;;;;13.10;8.23;;;20.10;99.90;;;;;;4991006;28;20026;-80
2023/06/25 02:00:08;;;;;;;13.35;8.57;;;20.10;99.90;;;;;;5010929;28;20232;-81
2023/06/25 02:02:34;;;;;;;12.15;8.57;;;20.10;99.90;;;;;;5012591;28;20021;-79
2023/06/25 02:04:59;;;;;;;11.00;8.10;;;20.10;99.90;;;;;;4986714;28;20092;-79
2023/06/25 02:07:25;;;;;;;12.48;8.05;;;20.00;99.90;;;;;;4998924;28;20392;-80
2023/06/25 02:09:51;;;;;;;18.13;8.70;;;20.10;99.90;;;;;;4991318;28;20038;-80
2023/06/25 02:12:16;;;;;;;13.18;8.85;;;20.10;99.90;;;;;;5007655;28;20104;-79
2023/06/25 02:14:42;;;;;;;16.17;7.90;;;20.00;99.90;;;;;;4987997;28;20477;-78
2023/06/25 02:17:08;;;;;;;11.57;8.35;;;20.00;99.90;;;;;;4983749;28;20033;-81
2023/06/25 02:19:33;;;;;;;12.85;9.32;;;20.00;99.90;;;;;;5007264;28;20394;-81
2023/06/25 02:21:59;;;;;;;12.93;9.02;;;19.90;99.90;;;;;;5010117;28;20109;-81
2023/06/25 02:24:24;;;;;;;13.85;8.75;;;19.90;99.90;;;;;;4989221;28;20022;-81
2023/06/25 02:26:53;;;;;;;9.48;7.97;;;19.90;99.90;;;;;;5005397;28;20046;-82
2023/06/25 02:29:18;;;;;;;11.95;8.40;;;19.90;99.90;;;;;;5009056;28;20128;-81
2023/06/25 02:31:44;;;;;;;16.15;8.45;;;19.90;99.90;;;;;;5010767;28;20101;-82
2023/06/25 02:34:12;;;;;;;14.93;9.13;;;19.90;99.90;;;;;;4993113;28;20030;-79
2023/06/25 02:36:38;;;;;;;15.02;8.95;;;19.80;99.90;;;;;;4988667;28;20041;-81
2023/06/25 02:39:04;;;;;;;13.30;8.90;;;19.90;99.90;;;;;;5009679;28;20434;-80
2023/06/25 02:41:29;;;;;;;13.25;8.88;;;19.90;99.90;;;;;;5010670;28;20104;-81
2023/06/25 02:43:55;;;;;;;11.85;8.40;;;19.80;99.90;;;;;;5003103;28;20069;-79
2023/06/25 02:46:23;;;;;;;11.70;8.70;;;19.90;99.90;;;;;;5008764;28;20017;-79
2023/06/25 02:48:48;;;;;;;18.77;9.20;;;19.90;99.90;;;;;;5003204;28;20059;-79
2023/06/25 02:51:14;;;;;;;14.02;9.20;;;19.90;99.90;;;;;;5006471;28;20045;-79
2023/06/25 02:53:40;;;;;;;14.23;8.98;;;19.80;99.90;;;;;;5010980;28;20025;-79
2023/06/25 02:56:05;;;;;;;11.88;8.57;;;19.80;99.90;;;;;;4987714;28;20021;-80
2023/06/25 02:58:31;;;;;;;14.77;9.20;;;19.70;99.90;;;;;;5007611;28;20071;-80
2023/06/25 03:00:59;;;;;;;14.13;8.98;;;19.70;99.90;;;;;;4989483;28;20037;-80
2023/06/25 03:03:24;;;;;;;11.43;8.57;;;19.70;99.90;;;;;;4989343;28;20076;-79
2023/06/25 03:05:53;;;;;;;14.70;9.23;;;19.70;99.90;;;;;;4992016;28;20029;-80
2023/06/25 03:08:19;;;;;;;14.27;9.02;;;19.80;99.90;;;;;;5008514;28;20724;-80
2023/06/25 03:10:44;;;;;;;12.98;9.07;;;19.70;99.90;;;;;;5007497;28;20625;-80
2023/06/25 03:13:11;;;;;;;14.80;8.93;;;19.70;99.90;;;;;;4990999;28;20038;-80
2023/06/25 03:15:37;;;;;;;13.80;8.65;;;19.70;99.90;;;;;;4992831;28;20044;-80
2023/06/25 03:18:02;;;;;;;17.92;9.82;;;19.70;99.90;;;;;;4996392;28;20052;-80
2023/06/25 03:20:28;;;;;;;12.82;8.40;;;19.60;99.90;;;;;;4991691;28;20022;-81
2023/06/25 03:22:54;;;;;;;13.73;9.00;;;19.70;99.90;;;;;;5008752;28;20022;-80
2023/06/25 03:25:19;;;;;;;13.32;9.40;;;19.60;99.90;;;;;;4989858;28;20070;-80
2023/06/25 03:27:45;;;;;;;11.60;8.80;;;19.70;99.90;;;;;;5011580;28;20069;-79
2023/06/25 03:30:11;;;;;;;12.32;9.30;;;19.60;99.90;;;;;;5010622;28;20572;-79
2023/06/25 03:35:12;;;;;;;15.90;9.25;;;19.60;99.90;;;;;;4954967;26;20446;-80
2023/06/25 03:37:37;;;;;;;14.25;9.52;;;19.50;99.90;;;;;;4958929;28;20030;-80
2023/06/25 03:40:03;;;;;;;15.05;9.65;;;19.50;99.90;;;;;;4957108;28;20026;-79
2023/06/25 03:42:29;;;;;;;11.82;8.52;;;19.50;99.90;;;;;;4964001;28;20030;-80
2023/06/25 03:44:55;;;;;;;16.05;8.77;;;19.50;99.90;;;;;;4959130;28;20031;-79
2023/06/25 03:47:21;;;;;;;18.10;10.00;;;19.60;99.90;;;;;;4937553;28;20034;-79
2023/06/25 03:49:47;;;;;;;16.33;9.93;;;19.50;99.90;;;;;;4957905;28;20022;-79
2023/06/25 03:52:15;;;;;;;12.95;9.13;;;19.50;99.90;;;;;;4957803;28;20019;-80
2023/06/25 03:54:40;;;;;;;16.33;10.80;;;19.50;99.90;;;;;;4959139;28;20031;-79
2023/06/25 03:57:06;;;;;;;14.95;9.60;;;19.40;99.90;;;;;;4973355;28;20217;-80
2023/06/25 03:59:32;;;;;;;15.88;9.63;;;19.40;99.90;;;;;;4985123;28;20045;-79
2023/06/25 04:01:58;;;;;;;14.88;9.18;;;19.50;99.90;;;;;;4967499;28;20038;-79
2023/06/25 04:04:24;;;;;;;17.13;9.77;;;19.40;99.90;;;;;;4948299;28;20659;-79
2023/06/25 04:06:50;;;;;;;15.77;9.48;;;19.50;99.90;;;;;;4959605;28;20094;-79
2023/06/25 04:09:16;;;;;;;16.23;10.63;;;19.50;99.90;;;;;;4955726;28;20049;-80
2023/06/25 04:11:41;;;;;;;11.85;9.10;;;19.50;99.90;;;;;;4958187;28;20029;-79
2023/06/25 04:14:07;;;;;;;15.57;9.93;;;19.60;99.90;;;;;;4958418;28;20043;-79
2023/06/25 04:16:32;;;;;;;15.55;10.10;;;19.60;99.90;;;;;;4971651;28;20026;-79
2023/06/25 04:18:58;;;;;;;19.90;9.98;;;19.70;99.90;;;;;;4985193;28;20019;-79
2023/06/25 04:21:24;;;;;;;17.60;10.13;;;19.70;99.90;;;;;;4943269;28;20062;-78
2023/06/25 04:23:49;;;;;;;19.58;10.63;;;19.80;99.90;;;;;;4937425;28;20034;-79
2023/06/25 04:26:15;;;;;;;15.32;10.05;;;19.90;99.90;;;;;;4956271;28;20081;-79
2023/06/25 04:28:40;;;;;;;14.50;10.15;;;19.90;99.90;;;;;;4938820;28;20030;-79
2023/06/25 04:31:06;;;;;;;12.10;8.93;;;20.00;99.90;;;;;;4956846;28;20089;-79
2023/06/25 04:33:33;;;;;;;13.48;9.43;;;20.00;99.90;;;;;;4954892;28;20126;-80
2023/06/25 04:35:59;;;;;;;16.50;10.65;;;20.10;99.90;;;;;;4954965;28;20109;-80
2023/06/25 04:38:24;;;;;;;15.23;10.20;;;20.10;99.90;;;;;;4938979;28;20169;-79
2023/06/25 04:40:50;;;;;;;16.48;9.82;;;20.20;99.90;;;;;;4955656;28;20275;-79
2023/06/25 04:43:15;;;;;;;19.42;9.95;;;20.20;99.90;;;;;;4955670;28;20031;-79
2023/06/25 04:45:41;;;;;;;13.52;9.88;;;20.30;99.90;;;;;;4941203;28;20026;-79
2023/06/25 04:48:07;;;;;;;22.45;10.52;;;20.30;99.90;;;;;;4954375;28;20042;-80
2023/06/25 04:50:33;;;;;;;20.05;10.52;;;20.40;99.90;;;;;;4954126;28;20031;-79
2023/06/25 04:52:58;;;;;;;14.48;10.32;;;20.50;99.90;;;;;;4955257;28;20369;-78
2023/06/25 04:55:24;;;;;;;24.20;10.48;;;20.50;99.90;;;;;;4939382;28;20101;-80
2023/06/25 04:57:51;;;;;;;19.77;10.10;;;20.60;99.90;;;;;;4958313;28;20694;-80
2023/06/25 05:00:16;;;;;;;13.68;9.65;;;20.60;99.90;;;;;;4938598;28;20033;-80
2023/06/25 05:02:45;;;;;;;17.92;10.23;;;20.70;99.90;;;;;;4957953;28;20383;-79
2023/06/25 05:05:10;;;;;;;17.88;10.25;;;20.70;99.90;;;;;;4956944;28;20792;-80
2023/06/25 05:07:36;;;;;;;19.25;9.82;;;20.80;99.90;;;;;;4940753;28;20027;-79
2023/06/25 05:10:01;;;;;;;17.65;10.02;;;20.80;99.90;;;;;;4956386;28;20030;-80
2023/06/25 05:12:27;;;;;;;16.38;10.30;;;20.90;99.90;;;;;;4956757;28;20058;-79
2023/06/25 05:14:52;;;;;;;19.77;10.50;;;21.00;99.90;;;;;;4958213;28;20386;-79
2023/06/25 05:17:18;;;;;;;13.40;9.25;;;21.10;99.90;;;;;;4955525;28;20031;-80
2023/06/25 05:19:44;;;;;;;17.33;9.88;;;21.20;99.90;;;;;;4957981;28;20499;-79
2023/06/25 05:22:10;;;;;;;14.48;10.15;;;21.20;99.90;;;;;;4956488;28;20031;-79
2023/06/25 05:24:35;;;;;;;16.05;9.82;;;21.20;99.90;;;;;;4942354;28;20054;-80
2023/06/25 05:27:01;;;;;;;15.30;10.90;;;21.30;99.90;;;;;;4943255;28;20029;-79
2023/06/25 05:29:27;;;;;;;20.45;9.95;;;21.40;99.90;;;;;;4959759;28;20051;-80
2023/06/25 05:31:55;;;;;;;14.60;10.43;;;21.40;99.90;;;;;;4943417;28;20569;-79
2023/06/25 05:34:21;;;;;;;15.48;11.05;;;21.40;99.90;;;;;;4959737;28;20035;-79
2023/06/25 05:36:47;;;;;;;17.80;10.75;;;21.50;99.90;;;;;;4960016;28;20375;-79
2023/06/25 05:39:12;;;;;;;14.13;10.77;;;21.50;99.90;;;;;;4961181;28;20053;-79
2023/06/25 05:41:40;;;;;;;16.15;10.82;;;21.50;99.90;;;;;;4942373;28;20027;-79
2023/06/25 05:44:05;;;;;;;14.50;10.40;;;21.60;99.90;;;;;;4961054;28;20111;-79
2023/06/25 05:46:35;;;;;;;14.65;10.75;;;21.80;99.90;;;;;;4966838;28;20205;-80
2023/06/25 05:49:01;;;;;;;15.40;9.95;;;21.80;99.90;;;;;;4948393;28;20034;-79
2023/06/25 05:51:26;;;;;;;14.70;10.60;;;21.90;99.90;;;;;;4959946;28;20074;-78
2023/06/25 05:53:54;;;;;;;13.63;9.85;;;22.00;99.90;;;;;;4957281;28;20034;-78
2023/06/25 05:56:19;;;;;;;15.60;10.27;;;22.10;99.90;;;;;;4960008;28;20110;-79
2023/06/25 05:58:47;;;;;;;16.58;10.75;;;22.20;99.90;;;;;;4941699;28;20344;-79
2023/06/25 06:01:13;;;;;;;15.88;10.85;;;22.30;99.90;;;;;;4958911;28;20395;-79
2023/06/25 06:03:39;;;;;;;14.25;10.38;;;22.40;99.90;;;;;;4959275;28;20073;-80
2023/06/25 06:06:04;;;;;;;18.30;10.05;;;22.50;99.90;;;;;;4960411;28;20031;-79
2023/06/25 06:08:30;;;;;;;13.57;9.98;;;22.60;99.90;;;;;;4960200;28;20742;-79
2023/06/25 06:10:55;;;;;;;16.52;10.07;;;22.70;99.90;;;;;;4959043;28;20030;-79
2023/06/25 06:13:21;;;;;;;25.05;10.70;;;22.80;99.90;;;;;;4958548;28;20695;-79
2023/06/25 06:15:49;;;;;;;16.40;10.40;;;22.90;99.90;;;;;;4960712;28;20031;-79
2023/06/25 06:18:15;;;;;;;17.77;9.98;;;23.00;99.90;;;;;;4965100;28;20023;-79
2023/06/25 06:20:40;;;;;;;17.17;9.90;;;23.10;99.90;;;;;;4965737;28;20023;-79
2023/06/25 06:23:06;;;;;;;17.65;10.27;;;23.30;99.90;;;;;;4966054;28;20034;-79
2023/06/25 06:25:31;;;;;;;15.40;9.32;;;23.40;99.90;;;;;;4968611;28;20027;-79
2023/06/25 06:27:57;;;;;;;17.85;10.40;;;23.50;99.90;;;;;;4961442;28;20164;-79
2023/06/25 06:30:25;;;;;;;16.17;10.70;;;23.60;99.90;;;;;;4959684;28;20042;-79
2023/06/25 06:32:50;;;;;;;17.38;10.13;;;23.70;99.90;;;;;;4960368;28;20109;-78
2023/06/25 06:35:16;;;;;;;14.88;10.27;;;23.80;99.90;;;;;;4960669;28;20613;-80
2023/06/25 06:37:41;;;;;;;16.95;11.35;;;23.90;99.90;;;;;;4942703;28;20376;-78
2023/06/25 06:40:07;;;;;;;21.92;10.45;;;23.90;99.90;;;;;;4943699;28;20418;-79
2023/06/25 06:42:35;;;;;;;19.23;10.82;;;24.10;99.90;;;;;;4941374;28;20069;-80
2023/06/25 06:45:02;;;;;;;17.75;10.45;;;24.10;99.90;;;;;;4957640;28;20026;-79
2023/06/25 06:47:27;;;;;;;20.63;10.73;;;24.20;99.90;;;;;;4942077;28;20023;-79
2023/06/25 06:49:56;;;;;;;18.95;11.20;;;24.30;99.90;;;;;;4960243;28;20030;-79
2023/06/25 06:52:24;;;;;;;17.92;11.13;;;24.40;99.90;;;;;;4941584;28;20026;-78
2023/06/25 06:54:50;;;;;;;23.58;11.38;;;24.50;99.90;;;;;;4941766;28;20033;-78
2023/06/25 06:57:16;;;;;;;22.60;11.73;;;24.60;99.90;;;;;;4957969;28;20030;-79
2023/06/25 06:59:44;;;;;;;21.50;11.35;;;24.70;99.90;;;;;;4941596;28;20076;-78
2023/06/25 07:02:09;;;;;;;17.92;10.77;;;24.70;99.90;;;;;;4960555;28;20487;-79
2023/06/25 07:04:35;;;;;;;18.65;10.30;;;24.80;99.90;;;;;;4959894;28;20070;-79
2023/06/25 07:07:00;;;;;;;17.02;10.70;;;24.90;99.90;;;;;;4960051;28;20019;-80
2023/06/25 07:09:26;;;;;;;20.35;11.45;;;25.00;99.90;;;;;;4942258;28;20035;-79
2023/06/25 07:11:53;;;;;;;18.88;10.73;;;25.10;99.90;;;;;;4959004;28;20074;-80
2023/06/25 07:14:18;;;;;;;15.80;9.68;;;25.10;99.90;;;;;;4960296;28;20022;-79
2023/06/25 07:16:44;;;;;;;16.85;10.63;;;25.20;99.90;;;;;;4959982;28;20085;-79
2023/06/25 07:19:10;;;;;;;17.92;10.80;;;25.30;99.90;;;;;;4959520;28;20081;-79
2023/06/25 07:21:37;;;;;;;18.92;10.15;;;25.40;99.90;;;;;;4960287;28;20030;-81
2023/06/25 07:24:05;;;;;;;15.82;9.82;;;25.50;99.90;;;;;;4960049;28;20596;-80
2023/06/25 07:26:31;;;;;;;16.83;10.40;;;25.60;99.90;;;;;;4959851;28;20035;-80
2023/06/25 07:28:56;;;;;;;16.67;10.00;;;25.80;99.90;;;;;;4955860;28;20086;-79
2023/06/25 07:31:24;;;;;;;17.23;10.02;;;25.90;99.90;;;;;;4942302;28;20101;-79
2023/06/25 07:33:50;;;;;;;17.27;9.73;;;25.90;99.90;;;;;;4942425;28;20038;-80
2023/06/25 07:36:16;;;;;;;18.70;10.50;;;26.10;99.90;;;;;;4944314;28;20023;-79
2023/06/25 07:38:42;;;;;;;19.65;10.48;;;26.20;99.90;;;;;;4959452;28;20019;-80
2023/06/25 07:41:07;;;;;;;15.82;9.80;;;26.40;99.90;;;;;;4958374;28;20031;-79
2023/06/25 07:43:33;;;;;;;17.10;9.98;;;26.60;99.90;;;;;;4941589;28;20557;-80
2023/06/25 07:45:59;;;;;;;19.40;9.30;;;26.70;99.90;;;;;;4959571;28;20031;-79
2023/06/25 07:48:24;;;;;;;14.85;9.57;;;27.00;99.90;;;;;;4959795;28;20165;-79
2023/06/25 07:50:52;;;;;;;16.92;9.38;;;27.20;99.90;;;;;;4938815;28;20089;-79
2023/06/25 07:53:17;;;;;;;14.75;10.18;;;27.30;99.90;;;;;;4940299;28;20041;-79
2023/06/25 07:55:45;;;;;;;15.23;9.73;;;27.50;99.90;;;;;;4959715;28;20391;-80
2023/06/25 07:58:11;;;;;;;15.73;10.50;;;27.70;99.90;;;;;;4959763;28;20125;-80
2023/06/25 08:00:36;;;;;;;15.40;9.50;;;27.90;99.20;;;;;;4946137;28;20114;-81
2023/06/25 08:03:03;;;;;;;16.70;9.77;;;28.00;98.90;;;;;;4956908;28;20166;-80
2023/06/25 08:05:28;;;;;;;15.82;9.88;;;28.10;98.60;;;;;;4942215;28;20933;-80
2023/06/25 08:07:56;;;;;;;17.40;9.98;;;28.40;97.20;;;;;;4959579;28;20034;-79
2023/06/25 08:10:23;;;;;;;20.05;9.65;;;28.60;97.20;;;;;;4957006;28;20867;-78
2023/06/25 08:12:48;;;;;;;14.32;8.52;;;28.80;96.40;;;;;;4959828;28;20590;-79
2023/06/25 08:15:16;;;;;;;15.20;8.07;;;28.90;94.60;;;;;;4959366;28;20118;-79
2023/06/25 08:17:42;;;;;;;21.58;8.30;;;28.90;93.50;;;;;;4941134;28;20039;-78
2023/06/25 08:20:08;;;;;;;13.82;8.63;;;28.70;92.90;;;;;;4944357;28;20023;-78
2023/06/25 08:22:34;;;;;;;13.60;8.45;;;29.10;92.90;;;;;;4958258;28;20027;-79
2023/06/25 08:24:59;;;;;;;13.23;8.48;;;29.10;91.90;;;;;;4958339;28;20629;-78
2023/06/25 08:27:25;;;;;;;15.80;8.30;;;29.00;91.50;;;;;;4939671;28;20055;-78
2023/06/25 08:29:50;;;;;;;12.13;8.05;;;29.10;91.10;;;;;;4939520;28;20542;-81
2023/06/25 08:32:16;;;;;;;11.15;7.57;;;29.40;90.70;;;;;;4960120;28;20411;-79
2023/06/25 08:34:42;;;;;;;9.52;7.22;;;29.70;87.50;;;;;;4967882;28;20082;-79
2023/06/25 08:37:07;;;;;;;16.60;7.95;;;29.80;87.50;;;;;;4983183;28;20111;-80
2023/06/25 08:39:33;;;;;;;11.75;8.15;;;30.00;87.50;;;;;;4952627;28;20364;-81
2023/06/25 08:41:59;;;;;;;10.85;6.72;;;30.00;85.30;;;;;;4950581;28;20031;-80
2023/06/25 08:44:25;;;;;;;13.43;8.20;;;30.40;84.30;;;;;;4961724;28;20746;-79
2023/06/25 08:46:54;;;;;;;10.48;7.20;;;30.60;84.90;;;;;;4956575;28;20054;-79
2023/06/25 08:49:23;;;;;;;10.63;7.22;;;30.70;82.80;;;;;;4958031;28;20041;-78
2023/06/25 08:51:55;;;;;;;9.75;7.50;;;30.90;80.80;;;;;;4956697;28;20098;-79
2023/06/25 08:54:21;;;;;;;13.90;7.72;;;30.90;80.80;;;;;;4941401;28;20518;-79
2023/06/25 08:56:47;;;;;;;7.97;6.53;;;31.10;80.70;;;;;;4957614;28;20035;-79
2023/06/25 08:59:12;;;;;;;13.52;7.97;;;31.50;82.70;;;;;;4966152;28;20479;-78
2023/06/25 09:01:41;;;;;;;10.10;7.97;;;31.60;79.90;;;;;;4962127;28;20114;-77
2023/06/25 09:04:06;;;;;;;9.48;7.40;;;31.70;79.10;;;;;;4961005;28;20081;-78
2023/06/25 09:06:41;;;;;;;8.23;7.43;;;31.80;77.70;;;;;;4942584;28;20062;-77
2023/06/25 09:09:10;;;;;;;10.30;7.97;;;31.80;77.90;;;;;;4958745;28;20093;-77
2023/06/25 09:11:40;;;;;;;10.73;7.28;;;31.70;78.40;;;;;;4961709;28;20048;-78
2023/06/25 09:14:06;;;;;;;9.18;7.05;;;31.90;76.50;;;;;;4960403;28;20037;-78
2023/06/25 09:16:32;;;;;;;7.50;6.57;;;31.90;76.20;;;;;;4960792;28;20595;-77
2023/06/25 09:19:01;;;;;;;14.65;6.80;;;31.80;76.00;;;;;;4962184;28;20118;-77
2023/06/25 09:21:40;;;;;;;8.23;6.82;;;32.00;75.30;;;;;;4957282;28;20483;-77
2023/06/25 09:24:14;;;;;;;9.90;6.90;;;32.10;73.90;;;;;;4946217;28;20035;-77
2023/06/25 09:26:50;;;;;;;8.45;6.97;;;32.30;73.50;;;;;;4961525;28;20014;-79
2023/06/25 09:29:18;;;;;;;8.02;6.43;;;32.50;72.70;;;;;;4962850;28;20086;-79
2023/06/25 09:31:45;;;;;;;9.13;6.82;;;32.40;69.70;;;;;;4960813;28;20062;-80
2023/06/25 09:34:14;;;;;;;8.38;6.70;;;32.40;69.70;;;;;;4962466;28;20038;-79
2023/06/25 09:36:39;;;;;;;9.35;6.97;;;32.50;69.50;;;;;;4960598;28;20062;-79
2023/06/25 09:39:07;;;;;;;9.70;6.15;;;32.90;70.20;;;;;;4961848;28;20137;-78
2023/06/25 09:41:34;;;;;;;7.78;6.93;;;33.20;68.60;;;;;;4958701;28;20034;-82
2023/06/25 09:44:05;;;;;;;9.27;6.57;;;33.40;65.80;;;;;;4961159;28;20033;-79
2023/06/25 09:46:36;;;;;;;8.90;6.18;;;33.40;65.70;;;;;;4941347;28;20075;-79
2023/06/25 09:49:03;;;;;;;7.10;6.40;;;33.50;63.30;;;;;;4960399;28;20741;-78
2023/06/25 09:51:39;;;;;;;6.85;6.15;;;33.60;61.90;;;;;;4959269;28;20031;-77
2023/06/25 09:54:08;;;;;;;6.35;5.75;;;33.60;61.70;;;;;;4956613;28;20237;-81
2023/06/25 09:56:36;;;;;;;6.78;6.07;;;33.60;61.90;;;;;;4961844;28;20114;-78
2023/06/25 09:59:02;;;;;;;6.60;6.05;;;33.70;62.70;;;;;;4943284;28;20081;-80
2023/06/25 10:01:28;;;;;;;5.68;5.18;;;33.80;61.20;;;;;;4943103;28;20030;-77
2023/06/25 10:03:54;;;;;;;7.90;5.80;;;33.60;59.50;;;;;;4963915;28;20041;-78
2023/06/25 10:06:19;;;;;;;6.35;5.75;;;33.60;59.40;;;;;;4966121;28;20011;-79
2023/06/25 10:08:45;;;;;;;6.25;5.65;;;33.60;59.00;;;;;;4964755;28;20050;-79
2023/06/25 10:11:14;;;;;;;6.43;5.88;;;33.70;60.40;;;;;;4960007;28;20785;-79
2023/06/25 10:13:41;;;;;;;7.03;6.10;;;33.60;60.30;;;;;;4962051;28;20050;-80
2023/06/25 10:16:07;;;;;;;6.63;5.75;;;33.50;61.40;;;;;;4959711;28;20034;-79
2023/06/25 10:18:41;;;;;;;6.30;5.70;;;33.80;59.40;;;;;;4962389;28;20015;-79
2023/06/25 10:21:07;;;;;;;51.38;31.08;;;34.20;59.20;;;;;;4960443;28;20499;-76
2023/06/25 10:23:36;;;;;;;6.22;5.63;;;34.30;58.70;;;;;;4937103;28;20027;-77
2023/06/25 10:26:02;;;;;;;6.22;5.65;;;34.40;58.10;;;;;;4962281;28;20030;-77
2023/06/25 10:28:34;;;;;;;8.00;6.22;;;34.80;58.20;;;;;;4963900;28;20034;-79
2023/06/25 10:31:12;;;;;;;8.25;5.93;;;35.10;57.40;;;;;;4964023;28;20030;-80
2023/06/25 10:33:40;;;;;;;5.80;5.32;;;35.40;56.30;;;;;;4947111;28;20057;-86
2023/06/25 10:36:10;;;;;;;6.10;5.60;;;35.40;55.70;;;;;;4962974;28;20031;-84
2023/06/25 10:38:36;;;;;;;7.10;5.35;;;35.70;55.40;;;;;;4965979;28;20109;-85
2023/06/25 10:41:02;;;;;;;7.30;5.43;;;35.20;55.20;;;;;;4946764;28;20039;-85
2023/06/25 10:43:28;;;;;;;6.45;5.47;;;35.40;55.50;;;;;;4939478;28;20402;-83
2023/06/25 10:45:57;;;;;;;6.25;5.43;;;35.30;54.70;;;;;;4971063;28;20033;-85
2023/06/25 10:48:24;;;;;;;6.10;5.60;;;35.00;54.40;;;;;;4979909;28;20047;-81
2023/06/25 10:50:54;;;;;;;7.85;5.95;;;35.40;55.80;;;;;;4982182;28;20011;-84
2023/06/25 10:53:22;;;;;;;7.03;5.90;;;35.20;54.80;;;;;;4978095;28;20438;-80
2023/06/25 10:55:52;;;;;;;6.13;5.53;;;35.40;54.80;;;;;;4975828;28;20027;-84
2023/06/25 10:58:22;;;;;;;6.47;5.50;;;35.30;54.50;;;;;;4970165;28;20019;-82
2023/06/25 11:00:56;;;;;;;8.60;6.53;;;35.40;54.70;;;;;;4948282;28;20058;-83
2023/06/25 11:03:23;;;;;;;6.13;5.40;;;35.60;55.20;;;;;;4963888;28;20581;-88
2023/06/25 11:05:48;;;;;;;6.28;5.32;;;35.70;55.50;;;;;;4949744;28;20479;-79
2023/06/25 11:08:14;;;;;;;7.90;5.72;;;36.10;54.20;;;;;;4944961;28;20097;-80
2023/06/25 11:10:41;;;;;;;6.60;6.03;;;35.70;52.80;;;;;;4942389;28;20117;-78
2023/06/25 11:13:11;;;;;;;12.90;9.27;;;35.40;53.70;;;;;;4941690;28;20703;-79
2023/06/25 11:15:40;;;;;;;17.00;9.73;;;35.60;54.40;;;;;;4955353;28;20085;-78
2023/06/25 11:18:10;;;;;;;5.97;5.40;;;35.40;54.20;;;;;;4953251;28;20572;-78
2023/06/25 11:20:39;;;;;;;7.80;5.82;;;35.30;55.00;;;;;;4950664;28;20069;-77
2023/06/25 11:23:05;;;;;;;9.05;5.60;;;35.30;55.50;;;;;;4957252;28;20030;-77
2023/06/25 11:25:31;;;;;;;7.05;5.43;;;35.20;54.10;;;;;;4957625;28;20061;-77
2023/06/25 11:28:02;;;;;;;5.75;5.22;;;35.10;54.00;;;;;;4953641;28;21275;-78
2023/06/25 11:30:29;;;;;;;9.75;5.20;;;34.80;53.60;;;;;;4958817;28;20085;-78
2023/06/25 11:33:05;;;;;;;6.25;5.65;;;34.80;55.30;;;;;;4942349;28;20438;-76
2023/06/25 11:35:31;;;;;;;5.78;5.28;;;35.20;55.50;;;;;;4958187;28;20061;-77
2023/06/25 11:37:56;;;;;;;5.72;5.22;;;35.40;54.00;;;;;;4959316;28;20153;-79
2023/06/25 11:40:34;;;;;;;5.43;5.03;;;35.60;54.10;;;;;;4959367;28;20030;-78
2023/06/25 11:43:00;;;;;;;6.95;5.88;;;35.70;53.10;;;;;;4957777;28;20027;-76
2023/06/25 11:45:26;;;;;;;7.05;5.90;;;36.10;53.90;;;;;;4959926;28;20458;-76
2023/06/25 11:47:53;;;;;;;6.85;6.18;;;36.10;52.20;;;;;;4958979;28;20334;-76
2023/06/25 11:50:26;;;;;;;6.93;5.03;;;35.90;52.70;;;;;;4959261;28;20517;-77
2023/06/25 11:52:53;;;;;;;7.97;5.78;;;35.70;51.90;;;;;;4957670;28;20162;-77
2023/06/25 11:55:21;;;;;;;6.97;5.38;;;35.60;52.50;;;;;;4949481;28;20121;-76
2023/06/25 11:57:47;;;;;;;7.57;5.60;;;35.70;53.20;;;;;;4949487;28;20023;-76
2023/06/25 12:00:14;;;;;;;6.75;6.13;;;35.80;52.30;;;;;;4943359;28;20471;-82
2023/06/25 12:02:39;;;;;;;6.85;6.25;;;35.50;51.30;;;;;;4937952;28;20026;-79
2023/06/25 12:05:06;;;;;;;7.32;5.60;;;35.50;52.40;;;;;;4958151;28;21158;-78
2023/06/25 12:07:33;;;;;;;5.90;5.38;;;35.60;52.50;;;;;;4942737;28;20510;-77
2023/06/25 12:09:59;;;;;;;6.18;5.35;;;35.90;52.10;;;;;;4959107;28;20050;-80
2023/06/25 12:12:25;;;;;;;5.82;5.43;;;35.80;52.10;;;;;;4955871;28;20081;-79
2023/06/25 12:14:51;;;;;;;6.22;5.72;;;35.80;50.40;;;;;;4959988;28;20101;-79
2023/06/25 12:17:16;;;;;;;6.13;5.53;;;35.90;50.70;;;;;;4959052;28;20046;-78
2023/06/25 12:19:42;;;;;;;6.72;6.20;;;35.40;52.00;;;;;;4941175;28;20053;-80
2023/06/25 12:22:09;;;;;;;7.70;6.07;;;35.70;51.50;;;;;;4942065;28;20350;-80
2023/06/25 12:24:34;;;;;;;5.85;5.35;;;36.00;51.90;;;;;;4959816;28;20023;-74
2023/06/25 12:27:02;;;;;;;6.65;5.45;;;36.00;51.10;;;;;;4946689;28;20497;-75
2023/06/25 12:29:31;;;;;;;6.72;6.15;;;35.60;50.60;;;;;;4959228;28;20050;-75
2023/06/25 12:31:57;;;;;;;5.95;5.18;;;35.70;50.00;;;;;;4961025;28;20386;-76
2023/06/25 12:34:22;;;;;;;6.55;6.05;;;35.90;50.40;;;;;;4965268;28;20030;-81
2023/06/25 12:36:48;;;;;;;7.75;6.00;;;35.80;51.00;;;;;;4963960;28;20092;-80
2023/06/25 12:39:13;;;;;;;6.82;5.30;;;35.70;50.20;;;;;;4971049;28;20102;-79